createdAt,value
2018-05-03T00:02:09.584Z,8.90
2018-05-03T00:04:37.191Z,9.60
2018-05-03T00:07:04.784Z,8.60
2018-05-03T00:09:32.344Z,9.33
2018-05-03T00:11:59.949Z,9.00
2018-05-03T00:14:27.527Z,8.20
2018-05-03T00:16:55.114Z,8.63
2018-05-03T00:19:23.497Z,8.43
2018-05-03T00:21:51.133Z,7.97
2018-05-03T00:24:18.739Z,9.20
2018-05-03T00:26:46.308Z,8.60
2018-05-03T00:29:13.948Z,8.97
2018-05-03T00:31:41.512Z,8.50
2018-05-03T00:34:09.117Z,9.00
2018-05-03T00:36:36.723Z,9.30
2018-05-03T00:39:04.273Z,8.73
2018-05-03T00:41:32.676Z,8.70
2018-05-03T00:44:00.297Z,9.80
2018-05-03T00:46:28.653Z,10.03
2018-05-03T00:48:56.328Z,8.97
2018-05-03T00:51:24.810Z,10.10
2018-05-03T00:53:52.455Z,9.90
2018-05-03T00:56:20.080Z,9.77
2018-05-03T00:58:47.666Z,9.40
2018-05-03T01:01:15.233Z,10.13
2018-05-03T01:03:42.870Z,10.33
2018-05-03T01:06:10.464Z,11.17
2018-05-03T01:08:38.065Z,10.40
2018-05-03T01:11:05.640Z,10.37
2018-05-03T01:13:33.218Z,11.00
2018-05-03T01:16:00.764Z,10.90
2018-05-03T01:18:28.361Z,9.60
2018-05-03T01:20:55.924Z,10.90
2018-05-03T01:23:23.518Z,11.43
2018-05-03T01:25:51.113Z,10.77
2018-05-03T01:28:18.742Z,10.97
2018-05-03T01:30:46.381Z,11.00
2018-05-03T01:33:13.962Z,11.80
2018-05-03T01:35:53.249Z,12.10
2018-05-03T01:38:20.793Z,11.00
2018-05-03T01:40:48.353Z,11.53
2018-05-03T01:43:15.957Z,11.20
2018-05-03T01:45:44.360Z,11.90
2018-05-03T01:48:11.925Z,10.73
2018-05-03T01:50:39.479Z,11.63
2018-05-03T01:53:07.102Z,11.53
2018-05-03T01:55:34.706Z,11.60
2018-05-03T01:58:02.306Z,12.20
2018-05-03T02:00:29.930Z,11.27
2018-05-03T02:02:57.475Z,11.50
2018-05-03T02:05:25.067Z,12.00
2018-05-03T02:07:52.653Z,12.20
2018-05-03T02:10:20.285Z,11.63
2018-05-03T02:12:47.875Z,11.73
2018-05-03T02:15:15.473Z,11.70
2018-05-03T02:17:43.797Z,11.70
2018-05-03T02:20:11.427Z,11.70
2018-05-03T02:22:38.989Z,12.57
2018-05-03T02:25:06.557Z,12.73
2018-05-03T02:27:34.191Z,11.40
2018-05-03T02:30:02.577Z,10.40
2018-05-03T02:32:30.190Z,10.73
2018-05-03T02:34:57.778Z,12.00
2018-05-03T02:37:26.145Z,10.70
2018-05-03T02:39:54.504Z,11.50
2018-05-03T02:42:22.158Z,11.30
2018-05-03T02:44:49.753Z,11.50
2018-05-03T02:47:18.099Z,11.10
2018-05-03T02:49:45.749Z,10.73
2018-05-03T02:52:13.325Z,11.53
2018-05-03T02:54:40.985Z,11.27
2018-05-03T02:57:20.355Z,11.73
2018-05-03T03:00:00.440Z,11.20
2018-05-03T03:05:55.091Z,11.27
2018-05-03T03:15:28.320Z,11.67
2018-05-03T03:18:11.581Z,11.07
2018-05-03T03:20:57.540Z,11.17
2018-05-03T03:23:42.549Z,10.90
2018-05-03T03:26:41.111Z,11.60
2018-05-03T03:29:26.104Z,11.67
2018-05-03T03:32:12.089Z,12.80
2018-05-03T03:34:39.629Z,11.57
2018-05-03T03:37:32.627Z,12.00
2018-05-03T03:40:17.710Z,12.00
2018-05-03T03:45:49.976Z,11.60
2018-05-03T03:48:18.271Z,12.80
2018-05-03T03:50:45.813Z,11.57
2018-05-03T03:53:14.127Z,11.73
2018-05-03T03:55:47.284Z,11.20
2018-05-03T03:58:14.809Z,10.40
2018-05-03T04:00:42.885Z,11.13
2018-05-03T04:03:10.424Z,9.80
2018-05-03T04:05:37.948Z,10.90
2018-05-03T04:08:05.485Z,10.40
2018-05-03T04:10:34.749Z,10.23
2018-05-03T04:13:02.281Z,10.50
2018-05-03T04:15:29.803Z,10.27
2018-05-03T04:18:09.856Z,9.27
2018-05-03T04:21:02.001Z,10.20
2018-05-03T04:23:42.956Z,10.73
2018-05-03T04:26:10.580Z,10.37
2018-05-03T04:28:38.185Z,10.30
2018-05-03T04:31:05.836Z,11.67
2018-05-03T04:36:38.390Z,11.27
2018-05-03T04:39:05.960Z,10.70
2018-05-03T04:41:33.603Z,11.40
2018-05-03T04:44:01.192Z,11.40
2018-05-03T04:46:28.760Z,10.70
2018-05-03T04:48:57.134Z,12.47
2018-05-03T04:51:24.717Z,11.40
2018-05-03T04:53:53.103Z,11.30
2018-05-03T04:56:20.682Z,11.47
2018-05-03T04:58:48.307Z,11.90
2018-05-03T05:01:15.898Z,11.20
2018-05-03T05:03:43.486Z,11.47
2018-05-03T05:06:11.101Z,11.90
2018-05-03T05:08:38.674Z,11.10
2018-05-03T05:11:06.295Z,10.30
2018-05-03T05:13:33.905Z,11.00
2018-05-03T05:16:01.510Z,11.23
2018-05-03T05:18:29.149Z,10.87
2018-05-03T05:20:56.810Z,10.27
2018-05-03T05:23:24.401Z,10.37
2018-05-03T05:25:52.796Z,10.53
2018-05-03T05:28:20.429Z,10.80
2018-05-03T05:30:48.140Z,10.87
2018-05-03T05:33:15.728Z,11.13
2018-05-03T05:35:43.378Z,10.50
2018-05-03T05:38:10.964Z,10.67
2018-05-03T05:40:38.540Z,10.83
2018-05-03T05:43:06.192Z,10.70
2018-05-03T05:45:33.835Z,10.70
2018-05-03T05:48:01.438Z,10.20
2018-05-03T05:50:29.822Z,9.93
2018-05-03T05:52:57.477Z,9.83
2018-05-03T05:55:25.896Z,10.10
2018-05-03T05:57:53.493Z,10.50
2018-05-03T06:00:21.127Z,10.47
2018-05-03T06:02:48.810Z,10.57
2018-05-03T06:05:16.441Z,10.73
2018-05-03T06:07:44.057Z,11.37
2018-05-03T06:10:12.422Z,11.43
2018-05-03T06:12:40.029Z,11.30
2018-05-03T06:15:07.673Z,11.00
2018-05-03T06:17:35.245Z,10.93
2018-05-03T06:20:02.841Z,10.93
2018-05-03T06:22:30.461Z,11.67
2018-05-03T06:24:58.110Z,12.00
2018-05-03T06:27:26.461Z,11.70
2018-05-03T06:29:54.062Z,12.30
2018-05-03T06:32:21.650Z,12.57
2018-05-03T06:34:49.262Z,11.90
2018-05-03T06:37:17.613Z,12.10
2018-05-03T06:39:45.228Z,12.67
2018-05-03T06:42:12.853Z,14.50
2018-05-03T06:44:40.453Z,14.07
2018-05-03T06:47:08.080Z,14.10
2018-05-03T06:49:36.526Z,13.17
2018-05-03T06:52:04.169Z,13.03
2018-05-03T06:54:31.785Z,13.13
2018-05-03T06:57:00.135Z,12.50
2018-05-03T06:59:27.774Z,12.60
2018-05-03T07:01:55.322Z,12.27
2018-05-03T07:04:23.076Z,11.93
2018-05-03T07:06:50.585Z,12.40
2018-05-03T07:09:18.219Z,11.47
2018-05-03T07:11:45.843Z,11.77
2018-05-03T07:14:13.431Z,11.40
2018-05-03T07:16:41.061Z,11.30
2018-05-03T07:19:08.670Z,11.40
2018-05-03T07:21:36.301Z,11.07
2018-05-03T07:24:03.942Z,9.90
2018-05-03T07:26:31.700Z,10.23
2018-05-03T07:29:00.093Z,9.83
2018-05-03T07:31:27.689Z,10.80
2018-05-03T07:33:55.325Z,10.30
2018-05-03T07:36:22.927Z,9.80
2018-05-03T07:38:50.545Z,10.10
2018-05-03T07:41:18.145Z,10.47
2018-05-03T07:43:45.746Z,10.93
2018-05-03T07:46:14.066Z,10.90
2018-05-03T07:48:41.674Z,10.70
2018-05-03T07:51:10.049Z,10.00
2018-05-03T07:53:37.672Z,9.47
2018-05-03T07:56:05.264Z,10.43
2018-05-03T07:58:32.905Z,10.00
2018-05-03T08:01:00.566Z,10.87
2018-05-03T08:03:28.187Z,11.70
2018-05-03T08:05:55.750Z,12.37
2018-05-03T08:08:23.357Z,9.40
2018-05-03T08:10:50.936Z,9.70
2018-05-03T08:13:19.355Z,9.70
2018-05-03T08:15:46.956Z,8.80
2018-05-03T08:18:14.551Z,8.43
2018-05-03T08:20:42.874Z,8.83
2018-05-03T08:23:10.696Z,8.97
2018-05-03T08:25:38.294Z,9.43
2018-05-03T08:28:05.898Z,9.03
2018-05-03T08:30:34.288Z,9.03
2018-05-03T08:33:02.676Z,8.40
2018-05-03T08:35:30.235Z,9.20
2018-05-03T08:37:57.882Z,9.37
2018-05-03T08:40:26.259Z,9.23
2018-05-03T08:42:54.589Z,9.57
2018-05-03T08:45:22.188Z,9.20
2018-05-03T08:47:49.753Z,8.63
2018-05-03T08:50:18.117Z,9.10
2018-05-03T09:01:50.515Z,9.77
2018-05-03T09:04:18.034Z,9.60
2018-05-03T09:06:45.608Z,8.50
2018-05-03T09:09:13.211Z,8.70
2018-05-03T09:11:40.810Z,9.23
2018-05-03T09:14:09.127Z,8.53
2018-05-03T09:16:36.709Z,9.10
2018-05-03T09:19:04.374Z,9.13
2018-05-03T09:21:32.002Z,8.87
2018-05-03T09:23:59.573Z,8.13
2018-05-03T09:26:27.141Z,9.40
2018-05-03T09:28:54.724Z,9.10
2018-05-03T09:31:22.327Z,9.03
2018-05-03T09:33:49.974Z,8.83
2018-05-03T09:36:18.301Z,8.77
2018-05-03T09:38:45.922Z,9.50
2018-05-03T09:41:13.480Z,9.10
2018-05-03T09:43:41.085Z,9.60
2018-05-03T09:46:08.657Z,9.27
2018-05-03T09:48:36.259Z,10.53
2018-05-03T09:51:03.838Z,9.20
2018-05-03T09:53:31.477Z,9.77
2018-05-03T09:55:59.047Z,9.20
2018-05-03T09:58:26.663Z,9.60
2018-05-03T10:00:54.247Z,10.40
2018-05-03T10:03:22.569Z,9.60
2018-05-03T10:05:50.135Z,9.60
2018-05-03T10:08:17.696Z,9.40
2018-05-03T10:10:45.299Z,9.73
2018-05-03T10:13:13.727Z,9.50
2018-05-03T10:15:41.283Z,9.17
2018-05-03T10:18:08.920Z,10.00
2018-05-03T10:20:36.534Z,9.40
2018-05-03T10:23:04.153Z,9.37
2018-05-03T10:25:31.758Z,9.50
2018-05-03T10:27:59.342Z,10.03
2018-05-03T10:30:27.722Z,9.57
2018-05-03T10:32:56.109Z,9.77
2018-05-03T10:35:23.693Z,9.70
2018-05-03T10:37:51.337Z,10.17
2018-05-03T10:40:18.903Z,9.50
2018-05-03T10:42:46.557Z,9.67
2018-05-03T10:45:14.141Z,9.40
2018-05-03T10:47:41.753Z,9.57
2018-05-03T10:50:09.402Z,9.70
2018-05-03T10:52:37.006Z,9.73
2018-05-03T10:55:04.639Z,10.40
2018-05-03T10:57:33.029Z,9.60
2018-05-03T11:00:00.609Z,10.03
2018-05-03T11:02:28.189Z,9.23
2018-05-03T11:04:55.779Z,9.53
2018-05-03T11:07:23.369Z,9.63
2018-05-03T11:09:51.780Z,9.23
2018-05-03T11:12:20.162Z,9.67
2018-05-03T11:14:47.718Z,9.80
2018-05-03T11:17:16.061Z,10.03
2018-05-03T11:19:44.399Z,9.50
2018-05-03T11:22:12.013Z,9.70
2018-05-03T11:24:39.585Z,10.37
2018-05-03T11:27:07.223Z,9.73
2018-05-03T11:29:35.561Z,10.20
2018-05-03T11:32:03.134Z,10.13
2018-05-03T11:34:30.691Z,9.57
2018-05-03T11:36:58.266Z,9.43
2018-05-03T11:39:26.672Z,9.90
2018-05-03T11:41:54.264Z,10.20
2018-05-03T11:44:21.854Z,10.60
2018-05-03T11:46:49.497Z,10.30
2018-05-03T11:49:17.105Z,9.60
2018-05-03T11:55:03.122Z,9.17
2018-05-03T11:57:30.713Z,9.33
2018-05-03T11:59:58.270Z,9.20
2018-05-03T12:02:25.960Z,10.27
2018-05-03T12:04:53.573Z,10.23
2018-05-03T12:07:21.170Z,9.87
2018-05-03T12:09:48.777Z,11.23
2018-05-03T12:12:17.141Z,10.70
2018-05-03T12:14:45.492Z,10.37
2018-05-03T12:17:13.921Z,10.20
2018-05-03T12:19:41.494Z,10.90
2018-05-03T12:22:09.117Z,9.43
2018-05-03T12:24:37.434Z,9.60
2018-05-03T12:27:05.033Z,9.83
2018-05-03T12:29:32.620Z,10.70
2018-05-03T12:32:00.929Z,10.37
2018-05-03T12:34:28.550Z,9.90
2018-05-03T12:36:56.941Z,10.57
2018-05-03T12:39:25.344Z,10.83
2018-05-03T12:41:53.689Z,10.83
2018-05-03T12:44:22.094Z,11.53
2018-05-03T12:46:49.676Z,11.63
2018-05-03T12:49:17.319Z,10.37
2018-05-03T12:51:44.943Z,10.40
2018-05-03T12:54:12.607Z,10.57
2018-05-03T12:56:40.125Z,10.40
2018-05-03T12:59:07.698Z,10.30
2018-05-03T13:01:35.330Z,10.17
2018-05-03T13:04:02.926Z,9.90
2018-05-03T13:06:30.516Z,9.70
2018-05-03T13:08:58.901Z,9.40
2018-05-03T13:11:27.238Z,9.90
2018-05-03T13:13:54.875Z,10.47
2018-05-03T13:16:22.453Z,9.63
2018-05-03T13:18:50.057Z,10.10
2018-05-03T13:21:18.438Z,9.83
2018-05-03T13:23:46.761Z,9.93
2018-05-03T13:26:14.340Z,10.40
2018-05-03T13:28:41.913Z,9.27
2018-05-03T13:31:09.550Z,9.63
2018-05-03T13:33:37.181Z,9.87
2018-05-03T13:36:04.866Z,10.00
2018-05-03T13:38:32.442Z,9.63
2018-05-03T13:41:00.065Z,9.70
2018-05-03T13:43:27.696Z,9.47
2018-05-03T13:45:56.036Z,9.97
2018-05-03T13:48:23.638Z,9.23
2018-05-03T13:50:51.966Z,9.10
2018-05-03T13:53:19.609Z,9.13
2018-05-03T13:55:47.213Z,9.27
2018-05-03T13:58:14.846Z,9.60
2018-05-03T14:00:42.447Z,9.97
2018-05-03T14:03:10.790Z,9.20
2018-05-03T14:05:38.412Z,9.27
2018-05-03T14:08:05.962Z,9.10
2018-05-03T14:10:34.289Z,10.30
2018-05-03T14:13:03.826Z,9.70
2018-05-03T14:15:31.410Z,9.20
2018-05-03T14:17:58.969Z,9.97
2018-05-03T14:20:26.569Z,9.30
2018-05-03T14:22:54.202Z,28.70
2018-05-03T14:25:21.797Z,23.53
2018-05-03T14:27:49.412Z,13.57
2018-05-03T14:30:17.020Z,17.57
2018-05-03T14:32:44.665Z,14.23
2018-05-03T14:35:12.261Z,10.37
2018-05-03T14:37:39.883Z,11.40
2018-05-03T14:40:07.519Z,12.60
2018-05-03T14:42:35.121Z,11.17
2018-05-03T14:47:36.981Z,10.40
2018-05-03T14:50:06.542Z,9.97
2018-05-03T14:52:34.929Z,9.93
2018-05-03T14:55:02.505Z,9.67
2018-05-03T14:57:30.117Z,9.80
2018-05-03T14:59:57.693Z,14.57
2018-05-03T15:02:30.660Z,10.17
2018-05-03T15:04:58.250Z,10.07
2018-05-03T15:07:26.632Z,10.23
2018-05-03T15:09:54.282Z,10.37
2018-05-03T15:12:22.682Z,10.07
2018-05-03T15:14:50.283Z,9.93
2018-05-03T15:17:17.882Z,11.13
2018-05-03T15:19:46.257Z,9.00
2018-05-03T15:22:13.883Z,8.80
2018-05-03T15:24:41.536Z,11.20
2018-05-03T15:27:09.172Z,9.57
2018-05-03T15:29:36.744Z,9.33
2018-05-03T15:32:04.354Z,14.13
2018-05-03T15:34:31.960Z,27.07
2018-05-03T15:36:59.650Z,13.57
2018-05-03T15:39:27.228Z,12.57
2018-05-03T15:41:54.823Z,9.20
2018-05-03T15:44:22.470Z,9.07
2018-05-03T15:46:50.789Z,8.87
2018-05-03T15:49:18.397Z,9.70
2018-05-03T15:51:45.945Z,10.07
2018-05-03T15:54:13.567Z,10.23
2018-05-03T15:56:41.158Z,10.63
2018-05-03T15:59:08.793Z,8.93
2018-05-03T16:01:36.434Z,8.73
2018-05-03T16:04:04.028Z,9.30
2018-05-03T16:06:31.629Z,8.60
2018-05-03T16:09:00.002Z,8.53
2018-05-03T16:11:28.339Z,10.40
2018-05-03T16:13:55.982Z,9.87
2018-05-03T16:16:23.582Z,10.27
2018-05-03T16:18:51.138Z,9.60
2018-05-03T16:21:18.788Z,9.20
2018-05-03T16:23:46.359Z,8.17
2018-05-03T16:26:13.968Z,8.33
2018-05-03T16:28:42.555Z,8.50
2018-05-03T16:31:10.157Z,8.00
2018-05-03T16:36:42.409Z,7.97
2018-05-03T16:39:10.029Z,7.43
2018-05-03T16:41:39.217Z,7.53
2018-05-03T16:44:06.789Z,7.47
2018-05-03T16:46:35.157Z,7.47
2018-05-03T16:52:20.257Z,8.00
2018-05-03T16:54:48.675Z,7.10
2018-05-03T16:57:16.260Z,7.87
2018-05-03T16:59:43.857Z,8.23
2018-05-03T17:02:12.182Z,7.60
2018-05-03T17:04:39.789Z,7.10
2018-05-03T17:07:07.413Z,6.90
2018-05-03T17:09:35.019Z,7.23
2018-05-03T17:12:02.642Z,7.43
2018-05-03T17:14:30.257Z,7.30
2018-05-03T17:16:58.600Z,9.77
2018-05-03T17:19:26.223Z,10.00
2018-05-03T17:21:53.824Z,7.50
2018-05-03T17:24:21.929Z,7.23
2018-05-03T17:26:49.539Z,6.50
2018-05-03T17:29:17.124Z,6.80
2018-05-03T17:31:44.772Z,10.30
2018-05-03T17:34:16.420Z,6.70
2018-05-03T17:36:44.034Z,10.37
2018-05-03T17:39:11.644Z,7.70
2018-05-03T17:41:40.157Z,7.83
2018-05-03T17:44:08.510Z,5.67
2018-05-03T17:46:36.101Z,6.70
2018-05-03T17:49:04.458Z,6.30
2018-05-03T17:57:24.036Z,6.13
2018-05-03T17:59:57.519Z,7.20
2018-05-03T18:08:16.111Z,6.50
2018-05-03T18:10:43.736Z,7.47
2018-05-03T18:16:05.807Z,6.97
2018-05-03T18:27:18.870Z,6.00
2018-05-03T18:29:46.473Z,6.40
2018-05-03T18:32:14.114Z,6.20
2018-05-03T18:34:45.285Z,6.50
2018-05-03T18:37:12.926Z,6.00
2018-05-03T18:39:47.781Z,6.10
2018-05-03T18:42:39.876Z,5.90
2018-05-03T18:45:07.487Z,5.60
2018-05-03T18:47:35.076Z,5.47
2018-05-03T18:50:03.479Z,5.80
2018-05-03T18:52:31.102Z,7.10
2018-05-03T18:54:58.751Z,5.90
2018-05-03T18:57:26.341Z,6.30
2018-05-03T18:59:54.723Z,6.73
2018-05-03T19:02:23.034Z,5.97
2018-05-03T19:04:50.643Z,6.27
2018-05-03T19:07:19.028Z,6.30
2018-05-03T19:09:47.425Z,6.40
2018-05-03T19:12:15.032Z,5.90
2018-05-03T19:14:42.598Z,6.00
2018-05-03T19:17:10.218Z,5.50
2018-05-03T19:19:37.791Z,6.60
2018-05-03T19:22:05.427Z,5.90
2018-05-03T19:24:32.980Z,4.90
2018-05-03T19:27:00.594Z,5.30
2018-05-03T19:29:28.185Z,5.77
2018-05-03T19:31:56.574Z,5.57
2018-05-03T19:34:24.917Z,6.20
2018-05-03T19:36:52.514Z,5.80
2018-05-03T19:39:20.161Z,5.43
2018-05-03T19:41:48.542Z,6.87
2018-05-03T19:44:16.936Z,6.20
2018-05-03T19:46:44.561Z,6.00
2018-05-03T19:49:12.121Z,6.53
2018-05-03T19:51:39.729Z,6.77
2018-05-03T19:54:07.315Z,7.27
2018-05-03T19:56:34.940Z,7.00
2018-05-03T19:59:02.500Z,8.10
2018-05-03T20:01:30.123Z,7.70
2018-05-03T20:03:57.756Z,7.67
2018-05-03T20:06:25.368Z,8.83
2018-05-03T20:08:53.723Z,8.20
2018-05-03T20:11:21.287Z,7.40
2018-05-03T20:14:02.029Z,6.73
2018-05-03T20:16:29.631Z,7.60
2018-05-03T20:18:58.039Z,7.27
2018-05-03T20:21:25.601Z,7.67
2018-05-03T20:23:53.178Z,7.17
2018-05-03T20:26:20.820Z,6.80
2018-05-03T20:28:48.423Z,7.20
2018-05-03T20:31:16.040Z,6.70
2018-05-03T20:33:43.611Z,6.77
2018-05-03T20:36:11.179Z,6.50
2018-05-03T20:38:38.778Z,7.10
2018-05-03T20:41:06.338Z,7.57
2018-05-03T20:43:33.973Z,7.00
2018-05-03T20:46:01.698Z,7.53
2018-05-03T20:48:29.163Z,6.63
2018-05-03T20:50:56.774Z,7.27
2018-05-03T20:53:24.381Z,7.20
2018-05-03T20:55:51.957Z,8.40
2018-05-03T20:58:19.537Z,8.00
2018-05-03T21:00:47.132Z,7.70
2018-05-03T21:03:15.486Z,7.17
2018-05-03T21:05:43.052Z,7.77
2018-05-03T21:08:10.633Z,7.87
2018-05-03T21:10:38.989Z,7.30
2018-05-03T21:13:06.637Z,7.30
2018-05-03T21:15:34.243Z,7.40
2018-05-03T21:18:01.882Z,7.40
2018-05-03T21:20:29.497Z,7.87
2018-05-03T21:22:57.097Z,8.23
2018-05-03T21:25:24.648Z,7.77
2018-05-03T21:27:52.270Z,7.90
2018-05-03T21:30:19.942Z,7.70
2018-05-03T21:32:47.496Z,8.67
2018-05-03T21:35:15.097Z,8.27
2018-05-03T21:37:42.686Z,7.43
2018-05-03T21:40:10.290Z,7.70
2018-05-03T21:42:37.857Z,7.80
2018-05-03T21:45:05.426Z,7.60
2018-05-03T21:47:32.994Z,7.17
2018-05-03T21:50:00.613Z,7.80
2018-05-03T21:52:28.191Z,7.50
2018-05-03T21:54:55.813Z,7.17
2018-05-03T21:57:23.429Z,6.60
2018-05-03T21:59:51.000Z,7.23
2018-05-03T22:02:18.619Z,7.77
2018-05-03T22:04:46.194Z,8.67
2018-05-03T22:07:13.834Z,7.00
2018-05-03T22:09:41.457Z,7.33
2018-05-03T22:12:09.885Z,7.67
2018-05-03T22:14:37.497Z,7.87
2018-05-03T22:17:05.921Z,7.80
2018-05-03T22:19:33.478Z,7.50
2018-05-03T22:22:01.078Z,7.90
2018-05-03T22:24:28.654Z,7.90
2018-05-03T22:26:57.023Z,6.93
2018-05-03T22:29:25.401Z,7.77
2018-05-03T22:31:53.777Z,9.10
2018-05-03T22:34:21.363Z,8.33
2018-05-03T22:36:48.978Z,8.50
2018-05-03T22:39:16.606Z,9.43
2018-05-03T22:41:44.169Z,8.70
2018-05-03T22:44:11.778Z,8.77
2018-05-03T22:46:39.390Z,8.10
2018-05-03T22:49:06.977Z,8.10
2018-05-03T22:51:34.591Z,7.90
2018-05-03T22:54:02.150Z,8.50
2018-05-03T22:56:29.750Z,7.63
2018-05-03T22:58:57.373Z,8.30
2018-05-03T23:01:24.950Z,8.70
2018-05-03T23:03:52.540Z,7.90
2018-05-03T23:06:20.152Z,8.03
2018-05-03T23:08:47.721Z,8.90
2018-05-03T23:11:15.351Z,8.23
2018-05-03T23:13:43.737Z,9.23
2018-05-03T23:16:12.071Z,8.97
2018-05-03T23:18:39.670Z,8.20
2018-05-03T23:21:07.235Z,6.97
2018-05-03T23:23:34.846Z,8.17
2018-05-03T23:26:02.477Z,7.37
2018-05-03T23:28:30.051Z,8.10
2018-05-03T23:30:57.690Z,8.80
2018-05-03T23:33:25.313Z,9.40
2018-05-03T23:35:52.943Z,9.50
2018-05-03T23:38:20.533Z,8.50
2018-05-03T23:40:48.144Z,8.43
2018-05-03T23:43:15.702Z,8.30
2018-05-03T23:45:43.293Z,7.60
2018-05-03T23:48:10.852Z,8.27
2018-05-03T23:50:38.423Z,8.57
2018-05-03T23:53:06.056Z,8.07
2018-05-03T23:55:33.658Z,6.97
2018-05-03T23:58:01.305Z,7.13
